createdAt,value
2018-08-18T00:01:37.715Z,25.07
2018-08-18T00:04:20.157Z,25.93
2018-08-18T00:06:48.666Z,30.00
2018-08-18T00:09:17.438Z,26.00
2018-08-18T00:11:45.810Z,22.30
2018-08-18T00:14:14.118Z,28.50
2018-08-18T00:16:42.567Z,31.10
2018-08-18T00:19:11.001Z,32.93
2018-08-18T00:21:39.416Z,32.90
2018-08-18T00:24:10.531Z,25.57
2018-08-18T00:26:38.894Z,32.60
2018-08-18T00:29:08.834Z,28.80
2018-08-18T00:31:41.480Z,29.00
2018-08-18T00:34:09.768Z,27.97
2018-08-18T00:36:38.152Z,34.17
2018-08-18T00:39:09.137Z,28.67
2018-08-18T00:41:38.292Z,27.13
2018-08-18T00:44:07.766Z,31.23
2018-08-18T00:46:36.207Z,26.50
2018-08-18T00:49:04.840Z,38.23
2018-08-18T00:51:34.957Z,31.27
2018-08-18T00:54:05.256Z,31.30
2018-08-18T00:56:38.964Z,33.07
2018-08-18T00:59:07.562Z,29.03
2018-08-18T01:01:36.125Z,31.87
2018-08-18T01:04:06.532Z,30.10
2018-08-18T01:06:37.225Z,33.97
2018-08-18T01:09:10.345Z,33.50
2018-08-18T01:11:38.920Z,31.47
2018-08-18T01:14:15.734Z,33.03
2018-08-18T01:16:49.294Z,26.97
2018-08-18T01:19:18.242Z,35.50
2018-08-18T01:22:02.270Z,43.40
2018-08-18T01:24:30.788Z,32.10
2018-08-18T01:27:02.352Z,36.50
2018-08-18T01:29:30.863Z,30.90
2018-08-18T01:31:59.462Z,35.03
2018-08-18T01:34:27.911Z,42.23
2018-08-18T01:36:57.499Z,36.30
2018-08-18T01:39:25.929Z,36.53
2018-08-18T01:41:54.275Z,29.47
2018-08-18T01:44:23.827Z,33.43
2018-08-18T01:46:53.225Z,36.20
2018-08-18T01:49:39.723Z,39.57
2018-08-18T01:52:15.418Z,33.67
2018-08-18T01:54:45.171Z,34.90
2018-08-18T01:57:14.718Z,36.70
2018-08-18T01:59:45.599Z,38.20
2018-08-18T02:02:17.668Z,32.97
2018-08-18T02:04:46.812Z,32.87
2018-08-18T02:07:21.737Z,38.37
2018-08-18T02:09:50.150Z,30.80
2018-08-18T02:12:18.611Z,33.03
2018-08-18T02:14:47.587Z,38.40
2018-08-18T02:17:34.982Z,34.50
2018-08-18T02:20:03.440Z,32.70
2018-08-18T02:22:32.474Z,29.30
2018-08-18T02:25:00.819Z,26.77
2018-08-18T02:27:29.334Z,31.20
2018-08-18T02:30:09.115Z,31.20
2018-08-18T02:32:38.682Z,27.53
2018-08-18T02:35:08.009Z,32.33
2018-08-18T02:37:36.703Z,35.17
2018-08-18T02:40:12.097Z,32.40
2018-08-18T02:42:40.460Z,31.30
2018-08-18T02:45:10.004Z,33.07
2018-08-18T02:47:38.511Z,33.37
2018-08-18T02:50:07.983Z,32.37
2018-08-18T02:52:37.076Z,32.43
2018-08-18T02:55:07.867Z,34.57
2018-08-18T02:57:37.436Z,33.37
2018-08-18T03:00:26.826Z,28.30
2018-08-18T03:02:55.141Z,28.20
2018-08-18T03:05:23.708Z,33.83
2018-08-18T03:07:53.044Z,27.43
2018-08-18T03:10:27.293Z,38.57
2018-08-18T03:13:00.379Z,24.30
2018-08-18T03:16:13.697Z,26.90
2018-08-18T03:18:49.215Z,31.00
2018-08-18T03:21:18.555Z,33.17
2018-08-18T03:23:58.754Z,38.30
2018-08-18T03:26:48.960Z,33.37
2018-08-18T03:29:17.897Z,37.40
2018-08-18T03:31:46.792Z,35.50
2018-08-18T03:34:15.431Z,34.13
2018-08-18T03:36:49.579Z,32.93
2018-08-18T03:39:26.134Z,31.87
2018-08-18T03:41:56.810Z,36.30
2018-08-18T03:44:25.213Z,35.37
2018-08-18T03:46:54.183Z,45.83
2018-08-18T03:49:22.842Z,35.43
2018-08-18T03:51:52.373Z,39.93
2018-08-18T03:54:20.742Z,31.40
2018-08-18T03:56:49.547Z,39.60
2018-08-18T03:59:17.960Z,37.50
2018-08-18T04:01:50.231Z,37.60
2018-08-18T04:04:19.424Z,29.40
2018-08-18T04:06:48.866Z,39.97
2018-08-18T04:09:19.220Z,33.00
2018-08-18T04:11:47.644Z,36.93
2018-08-18T04:14:19.685Z,43.30
2018-08-18T04:16:49.326Z,41.57
2018-08-18T04:19:19.471Z,34.13
2018-08-18T04:21:48.751Z,41.00
2018-08-18T04:24:17.620Z,45.10
2018-08-18T04:26:50.848Z,36.70
2018-08-18T04:29:21.374Z,38.73
2018-08-18T04:31:49.752Z,43.27
2018-08-18T04:34:18.121Z,40.00
2018-08-18T04:36:46.541Z,42.90
2018-08-18T04:39:15.327Z,42.67
2018-08-18T04:41:44.017Z,47.40
2018-08-18T04:44:12.402Z,42.97
2018-08-18T04:46:40.804Z,42.77
2018-08-18T04:49:09.214Z,46.33
2018-08-18T04:51:37.543Z,39.10
2018-08-18T04:54:06.358Z,39.70
2018-08-18T04:56:34.772Z,40.83
2018-08-18T04:59:03.217Z,34.30
2018-08-18T05:01:31.603Z,42.33
2018-08-18T05:04:05.476Z,37.37
2018-08-18T05:06:34.815Z,42.43
2018-08-18T05:09:05.238Z,45.60
2018-08-18T05:11:33.685Z,42.77
2018-08-18T05:14:01.995Z,39.43
2018-08-18T05:16:30.384Z,35.00
2018-08-18T05:18:58.757Z,40.57
2018-08-18T05:21:27.480Z,45.57
2018-08-18T05:23:55.860Z,35.70
2018-08-18T05:26:24.558Z,27.07
2018-08-18T05:28:52.884Z,35.43
2018-08-18T05:31:22.087Z,34.10
2018-08-18T05:33:50.665Z,37.83
2018-08-18T05:39:09.831Z,42.80
2018-08-18T05:41:38.333Z,36.20
2018-08-18T05:44:06.850Z,44.40
2018-08-18T05:46:35.331Z,37.33
2018-08-18T05:49:11.857Z,31.20
2018-08-18T05:51:43.134Z,36.43
2018-08-18T05:54:13.267Z,34.00
2018-08-18T05:56:44.070Z,38.40
2018-08-18T05:59:12.445Z,39.67
2018-08-18T06:01:41.455Z,35.90
2018-08-18T06:04:13.840Z,41.57
2018-08-18T06:06:43.044Z,35.20
2018-08-18T06:09:12.604Z,42.57
2018-08-18T06:11:41.794Z,37.83
2018-08-18T06:14:11.579Z,39.03
2018-08-18T06:16:40.412Z,35.83
2018-08-18T06:19:08.935Z,34.70
2018-08-18T06:21:37.904Z,33.13
2018-08-18T06:24:06.501Z,36.37
2018-08-18T06:26:34.875Z,34.27
2018-08-18T06:29:03.173Z,33.43
2018-08-18T06:31:31.814Z,37.80
2018-08-18T06:34:00.564Z,26.77
2018-08-18T06:36:30.654Z,35.07
2018-08-18T06:38:59.244Z,30.43
2018-08-18T06:41:27.774Z,23.73
2018-08-18T06:43:56.049Z,33.83
2018-08-18T06:46:24.366Z,31.50
2018-08-18T06:48:52.836Z,35.80
2018-08-18T06:51:21.264Z,32.67
2018-08-18T06:53:49.830Z,34.20
2018-08-18T06:56:18.149Z,28.73
2018-08-18T06:58:46.574Z,29.07
2018-08-18T07:01:14.959Z,32.07
2018-08-18T07:03:44.868Z,35.47
2018-08-18T07:06:14.438Z,36.90
2018-08-18T07:08:48.161Z,33.47
2018-08-18T07:11:16.654Z,27.87
2018-08-18T07:13:46.457Z,36.13
2018-08-18T07:16:15.431Z,34.10
2018-08-18T07:18:44.599Z,34.27
2018-08-18T07:21:13.189Z,33.33
2018-08-18T07:23:41.567Z,27.53
2018-08-18T07:26:10.043Z,46.07
2018-08-18T07:28:38.472Z,36.40
2018-08-18T07:31:06.926Z,21.90
2018-08-18T07:33:35.291Z,24.17
2018-08-18T07:36:03.691Z,29.33
2018-08-18T07:38:32.066Z,36.93
2018-08-18T07:41:00.601Z,31.13
2018-08-18T07:43:32.340Z,36.40
2018-08-18T07:46:02.296Z,46.87
2018-08-18T07:48:30.662Z,34.50
2018-08-18T07:50:59.068Z,29.43
2018-08-18T07:53:27.630Z,32.07
2018-08-18T07:55:55.985Z,31.73
2018-08-18T07:58:25.760Z,41.63
2018-08-18T08:00:56.971Z,28.40
2018-08-18T08:03:25.287Z,29.50
2018-08-18T08:05:53.613Z,23.90
2018-08-18T08:08:23.282Z,18.43
2018-08-18T08:10:53.845Z,27.50
2018-08-18T08:13:22.180Z,32.13
2018-08-18T08:15:50.507Z,20.93
2018-08-18T08:18:19.485Z,25.23
2018-08-18T08:20:47.773Z,29.67
2018-08-18T08:23:16.203Z,30.40
2018-08-18T08:25:44.515Z,31.57
2018-08-18T08:28:13.181Z,23.67
2018-08-18T08:30:41.578Z,25.57
2018-08-18T08:33:10.136Z,25.33
2018-08-18T08:35:39.360Z,27.60
2018-08-18T08:38:07.705Z,13.73
2018-08-18T08:40:36.875Z,24.53
2018-08-18T08:43:05.496Z,31.07
2018-08-18T08:45:33.813Z,34.33
2018-08-18T08:48:02.282Z,29.87
2018-08-18T08:50:30.945Z,29.90
2018-08-18T08:52:59.387Z,24.80
2018-08-18T08:55:28.874Z,20.70
2018-08-18T08:57:57.275Z,29.30
2018-08-18T09:00:25.722Z,26.20
2018-08-18T09:02:54.117Z,24.00
2018-08-18T09:05:22.515Z,23.50
2018-08-18T09:07:50.851Z,26.77
2018-08-18T09:10:19.352Z,31.53
2018-08-18T09:12:48.321Z,26.17
2018-08-18T09:15:17.552Z,27.60
2018-08-18T09:17:46.104Z,27.27
2018-08-18T09:20:18.345Z,26.37
2018-08-18T09:22:56.969Z,18.37
2018-08-18T09:25:28.129Z,23.90
2018-08-18T09:27:58.543Z,25.57
2018-08-18T09:30:28.180Z,28.27
2018-08-18T09:33:00.196Z,23.23
2018-08-18T09:35:28.754Z,26.40
2018-08-18T09:38:01.681Z,29.23
2018-08-18T09:40:32.451Z,29.43
2018-08-18T09:43:06.347Z,19.50
2018-08-18T09:45:34.733Z,19.63
2018-08-18T09:48:03.142Z,15.73
2018-08-18T09:50:31.498Z,19.77
2018-08-18T09:52:59.842Z,23.70
2018-08-18T09:55:28.421Z,26.10
2018-08-18T09:57:56.936Z,22.07
2018-08-18T10:00:30.738Z,20.47
2018-08-18T10:02:59.132Z,24.13
2018-08-18T10:05:27.585Z,20.07
2018-08-18T10:07:55.906Z,25.00
2018-08-18T10:10:24.249Z,24.10
2018-08-18T10:12:52.613Z,17.70
2018-08-18T10:15:21.010Z,11.53
2018-08-18T10:17:49.370Z,20.93
2018-08-18T10:20:17.761Z,20.67
2018-08-18T10:22:46.160Z,20.63
2018-08-18T10:25:14.563Z,15.30
2018-08-18T10:27:42.901Z,13.97
2018-08-18T10:30:11.306Z,20.60
2018-08-18T10:32:43.927Z,23.10
2018-08-18T10:35:14.884Z,24.80
2018-08-18T10:37:43.253Z,18.47
2018-08-18T10:40:11.845Z,17.73
2018-08-18T10:42:40.195Z,18.43
2018-08-18T10:45:08.555Z,16.47
2018-08-18T10:47:36.996Z,16.00
2018-08-18T10:50:15.442Z,15.03
2018-08-18T10:52:55.000Z,19.80
2018-08-18T10:55:24.292Z,16.93
2018-08-18T10:57:59.226Z,16.40
2018-08-18T11:00:28.843Z,14.67
2018-08-18T11:02:58.476Z,17.80
2018-08-18T11:05:27.700Z,19.60
2018-08-18T11:08:02.100Z,18.77
2018-08-18T11:10:31.964Z,17.43
2018-08-18T11:13:00.655Z,17.00
2018-08-18T11:15:29.133Z,16.60
2018-08-18T11:17:57.985Z,14.37
2018-08-18T11:20:28.644Z,14.60
2018-08-18T11:23:04.688Z,12.00
2018-08-18T11:25:39.273Z,13.13
2018-08-18T11:28:08.891Z,11.60
2018-08-18T11:30:37.327Z,12.57
2018-08-18T11:33:06.204Z,13.13
2018-08-18T11:35:34.966Z,11.20
2018-08-18T11:38:11.818Z,13.10
2018-08-18T11:40:40.136Z,12.10
2018-08-18T11:43:10.450Z,13.60
2018-08-18T11:45:39.849Z,11.23
2018-08-18T11:48:11.942Z,12.07
2018-08-18T11:50:40.808Z,10.97
2018-08-18T11:53:09.264Z,13.20
2018-08-18T11:55:37.930Z,12.83
2018-08-18T11:58:07.968Z,13.70
2018-08-18T12:00:45.547Z,14.90
2018-08-18T12:03:15.117Z,10.43
2018-08-18T12:05:49.101Z,15.63
2018-08-18T12:08:18.672Z,11.83
2018-08-18T12:10:48.200Z,8.07
2018-08-18T12:13:16.760Z,8.40
2018-08-18T12:15:58.185Z,9.57
2018-08-18T12:18:29.416Z,7.80
2018-08-18T12:20:58.867Z,8.70
2018-08-18T12:23:27.621Z,8.90
2018-08-18T12:26:01.359Z,8.73
2018-08-18T12:28:35.106Z,7.30
2018-08-18T12:31:06.019Z,9.00
2018-08-18T12:33:35.043Z,6.47
2018-08-18T12:36:03.593Z,7.80
2018-08-18T12:38:32.692Z,6.57
2018-08-18T12:41:01.316Z,6.60
2018-08-18T12:43:40.159Z,6.40
2018-08-18T12:46:09.791Z,5.57
2018-08-18T12:48:41.470Z,5.73
2018-08-18T12:51:11.324Z,6.57
2018-08-18T12:53:45.069Z,5.40
2018-08-18T12:56:15.846Z,6.80
2018-08-18T12:58:44.537Z,6.60
2018-08-18T13:01:13.244Z,9.07
2018-08-18T13:03:41.543Z,14.03
2018-08-18T13:06:10.572Z,7.60
2018-08-18T13:08:39.300Z,6.90
2018-08-18T13:11:07.774Z,5.87
2018-08-18T13:13:36.302Z,6.67
2018-08-18T13:16:04.692Z,6.50
2018-08-18T13:18:33.783Z,4.97
2018-08-18T13:21:02.213Z,5.83
2018-08-18T13:23:30.568Z,4.93
2018-08-18T13:25:58.987Z,4.73
2018-08-18T13:28:27.443Z,5.10
2018-08-18T13:30:55.849Z,4.27
2018-08-18T13:33:25.387Z,4.37
2018-08-18T13:35:53.793Z,4.13
2018-08-18T13:38:30.829Z,4.53
2018-08-18T13:40:59.301Z,7.00
2018-08-18T13:43:43.017Z,5.03
2018-08-18T13:46:12.960Z,7.20
2018-08-18T13:48:52.223Z,4.87
2018-08-18T13:51:21.719Z,4.07
2018-08-18T13:53:53.178Z,6.83
2018-08-18T13:56:24.578Z,4.63
2018-08-18T13:58:54.409Z,4.80
2018-08-18T14:01:29.164Z,4.13
2018-08-18T14:03:57.545Z,5.03
2018-08-18T14:06:26.032Z,5.10
2018-08-18T14:09:00.157Z,6.80
2018-08-18T14:11:29.459Z,5.87
2018-08-18T14:13:59.770Z,4.70
2018-08-18T14:16:28.856Z,4.43
2018-08-18T14:18:57.268Z,4.23
2018-08-18T14:21:25.635Z,4.67
2018-08-18T14:23:54.490Z,4.10
2018-08-18T14:26:23.042Z,3.93
2018-08-18T14:28:51.356Z,4.47
2018-08-18T14:31:19.674Z,4.50
2018-08-18T14:33:48.079Z,5.73
2018-08-18T14:36:16.996Z,6.00
2018-08-18T14:38:46.736Z,4.63
2018-08-18T14:41:47.262Z,4.43
2018-08-18T14:44:15.671Z,5.10
2018-08-18T14:46:44.075Z,4.27
2018-08-18T14:49:12.346Z,4.67
2018-08-18T14:51:40.672Z,3.93
2018-08-18T14:54:09.350Z,4.20
2018-08-18T14:56:37.631Z,4.13
2018-08-18T14:59:06.313Z,4.40
2018-08-18T15:01:34.627Z,3.77
2018-08-18T15:04:03.666Z,4.57
2018-08-18T15:06:32.001Z,4.00
2018-08-18T15:09:00.526Z,4.47
2018-08-18T15:11:29.032Z,3.80
2018-08-18T15:13:57.443Z,6.07
2018-08-18T15:16:25.779Z,4.13
2018-08-18T15:18:55.171Z,3.83
2018-08-18T15:21:23.615Z,4.90
2018-08-18T15:23:52.007Z,3.70
2018-08-18T15:26:20.382Z,3.90
2018-08-18T15:28:48.783Z,5.17
2018-08-18T15:31:17.126Z,4.60
2018-08-18T15:33:46.067Z,6.50
2018-08-18T15:36:26.331Z,7.40
2018-08-18T15:38:54.680Z,5.50
2018-08-18T15:41:24.598Z,5.70
2018-08-18T15:43:53.312Z,4.30
2018-08-18T15:46:23.151Z,5.50
2018-08-18T15:48:51.841Z,5.80
2018-08-18T15:51:20.224Z,5.23
2018-08-18T15:53:53.932Z,5.07
2018-08-18T15:56:23.185Z,4.87
2018-08-18T15:58:52.204Z,5.60
2018-08-18T16:01:26.500Z,4.93
2018-08-18T16:03:55.468Z,4.47
2018-08-18T16:06:23.970Z,5.90
2018-08-18T16:08:52.962Z,5.03
2018-08-18T16:11:21.386Z,4.93
2018-08-18T16:13:49.953Z,5.30
2018-08-18T16:16:18.196Z,5.10
2018-08-18T16:18:47.106Z,4.83
2018-08-18T16:21:22.541Z,4.93
2018-08-18T16:23:51.209Z,5.60
2018-08-18T16:26:19.510Z,5.40
2018-08-18T16:28:47.904Z,5.80
2018-08-18T16:31:16.283Z,5.63
2018-08-18T16:33:44.679Z,6.20
2018-08-18T16:36:13.008Z,5.77
2018-08-18T16:38:41.623Z,6.60
2018-08-18T16:41:10.013Z,5.13
2018-08-18T16:43:38.671Z,5.00
2018-08-18T16:46:20.388Z,5.20
2018-08-18T16:48:49.256Z,5.67
2018-08-18T16:51:17.625Z,6.27
2018-08-18T16:53:46.075Z,6.40
2018-08-18T16:56:31.413Z,5.77
2018-08-18T16:59:00.816Z,6.50
2018-08-18T17:01:29.182Z,7.00
2018-08-18T17:09:42.013Z,8.10
2018-08-18T17:12:17.656Z,6.10
2018-08-18T17:14:46.011Z,6.60
2018-08-18T17:17:14.416Z,8.83
2018-08-18T17:33:57.186Z,7.90
2018-08-18T17:36:25.814Z,7.77
2018-08-18T17:38:54.949Z,7.73
2018-08-18T17:41:23.341Z,13.03
2018-08-18T17:43:51.668Z,8.33
2018-08-18T17:46:20.061Z,10.80
2018-08-18T17:48:53.252Z,7.73
2018-08-18T17:51:21.571Z,10.60
2018-08-18T17:53:54.571Z,8.87
2018-08-18T17:56:22.962Z,10.63
2018-08-18T17:58:51.495Z,7.63
2018-08-18T18:01:19.877Z,8.17
2018-08-18T18:03:48.202Z,7.43
2018-08-18T18:06:16.595Z,7.67
2018-08-18T18:08:44.893Z,9.33
2018-08-18T18:11:14.131Z,9.23
2018-08-18T18:13:42.468Z,15.17
2018-08-18T18:16:22.225Z,8.83
2018-08-18T18:18:50.652Z,14.73
2018-08-18T18:21:18.987Z,8.50
2018-08-18T18:23:47.299Z,15.77
2018-08-18T18:26:16.230Z,13.53
2018-08-18T18:28:44.610Z,9.20
2018-08-18T18:31:12.990Z,10.27
2018-08-18T18:33:43.057Z,11.60
2018-08-18T18:36:11.592Z,11.70
2018-08-18T18:38:55.074Z,10.10
2018-08-18T18:41:23.424Z,10.23
2018-08-18T18:44:00.268Z,9.20
2018-08-18T18:46:28.694Z,9.37
2018-08-18T18:48:57.264Z,15.00
2018-08-18T18:51:26.579Z,14.90
2018-08-18T18:53:57.108Z,10.67
2018-08-18T18:56:25.542Z,10.43
2018-08-18T18:58:54.128Z,8.50
2018-08-18T19:01:22.830Z,16.10
2018-08-18T19:03:51.237Z,9.80
2018-08-18T19:06:19.536Z,13.03
2018-08-18T19:08:58.227Z,10.13
2018-08-18T19:11:27.216Z,11.03
2018-08-18T19:13:56.259Z,12.80
2018-08-18T19:16:24.955Z,12.07
2018-08-18T19:18:53.316Z,11.13
2018-08-18T19:21:21.672Z,10.10
2018-08-18T19:23:50.052Z,12.13
2018-08-18T19:26:18.328Z,10.50
2018-08-18T19:28:46.901Z,11.93
2018-08-18T19:31:17.366Z,11.57
2018-08-18T19:33:45.792Z,11.70
2018-08-18T19:36:14.195Z,11.47
2018-08-18T19:38:42.590Z,15.73
2018-08-18T19:41:10.897Z,14.73
2018-08-18T19:43:39.293Z,13.27
2018-08-18T19:46:07.660Z,10.97
2018-08-18T19:48:35.988Z,12.93
2018-08-18T19:51:04.971Z,11.07
2018-08-18T19:53:34.768Z,17.03
2018-08-18T19:56:04.076Z,10.77
2018-08-18T19:58:33.232Z,10.27
2018-08-18T20:01:02.823Z,11.07
2018-08-18T20:03:31.589Z,18.40
2018-08-18T20:06:01.738Z,13.83
2018-08-18T20:08:30.190Z,14.00
2018-08-18T20:11:00.158Z,12.27
2018-08-18T20:13:29.922Z,13.80
2018-08-18T20:16:00.890Z,17.70
2018-08-18T20:18:29.281Z,14.07
2018-08-18T20:20:58.683Z,13.30
2018-08-18T20:23:27.158Z,13.50
2018-08-18T20:25:55.524Z,18.33
2018-08-18T20:28:23.830Z,13.30
2018-08-18T20:30:52.206Z,15.57
2018-08-18T20:33:20.601Z,14.40
2018-08-18T20:35:48.982Z,13.80
2018-08-18T20:38:17.447Z,15.67
2018-08-18T20:40:45.796Z,14.37
2018-08-18T20:43:14.223Z,15.80
2018-08-18T20:57:06.079Z,16.80
2018-08-18T20:59:34.429Z,18.53
2018-08-18T21:02:02.760Z,18.47
2018-08-18T21:04:31.192Z,18.73
2018-08-18T21:06:59.591Z,17.60
2018-08-18T21:09:29.897Z,17.30
2018-08-18T21:11:58.233Z,15.60
2018-08-18T21:14:29.364Z,18.60
2018-08-18T21:16:57.948Z,15.33
2018-08-18T21:19:27.280Z,16.43
2018-08-18T21:21:56.640Z,14.67
2018-08-18T21:24:25.105Z,15.20
2018-08-18T21:26:53.531Z,17.20
2018-08-18T21:29:23.877Z,14.97
2018-08-18T21:31:52.219Z,13.20
2018-08-18T21:34:21.146Z,14.23
2018-08-18T21:36:49.524Z,17.80
2018-08-18T21:39:17.914Z,16.20
2018-08-18T21:41:47.493Z,13.97
2018-08-18T21:44:16.325Z,25.17
2018-08-18T21:46:44.883Z,15.97
2018-08-18T21:49:13.594Z,14.47
2018-08-18T21:51:41.997Z,16.97
2018-08-18T21:54:10.383Z,20.73
2018-08-18T21:56:41.326Z,14.83
2018-08-18T21:59:10.974Z,14.67
2018-08-18T22:01:39.378Z,13.73
2018-08-18T22:04:08.394Z,14.00
2018-08-18T22:06:43.296Z,15.27
2018-08-18T22:09:27.869Z,13.97
2018-08-18T22:11:56.277Z,18.37
2018-08-18T22:14:24.606Z,16.53
2018-08-18T22:16:56.545Z,15.03
2018-08-18T22:19:25.270Z,16.93
2018-08-18T22:21:53.821Z,17.73
2018-08-18T22:24:22.377Z,15.87
2018-08-18T22:26:50.860Z,16.30
2018-08-18T22:29:23.432Z,20.30
2018-08-18T22:31:52.448Z,14.27
2018-08-18T22:34:20.851Z,15.20
2018-08-18T22:36:49.190Z,16.77
2018-08-18T22:39:18.713Z,18.27
2018-08-18T22:41:47.042Z,25.90
2018-08-18T22:44:15.406Z,24.97
2018-08-18T22:46:43.745Z,20.23
2018-08-18T22:49:12.087Z,20.60
2018-08-18T22:51:40.471Z,19.20
2018-08-18T22:54:08.824Z,20.33
2018-08-18T22:56:38.379Z,17.27
2018-08-18T22:59:08.094Z,15.60
2018-08-18T23:01:37.801Z,21.80
2018-08-18T23:05:44.336Z,19.30
2018-08-18T23:08:12.676Z,20.97
2018-08-18T23:10:41.620Z,23.30
2018-08-18T23:13:10.778Z,21.37
2018-08-18T23:15:39.090Z,22.93
2018-08-18T23:18:07.548Z,18.70
2018-08-18T23:20:36.174Z,27.07
2018-08-18T23:23:04.575Z,25.43
2018-08-18T23:25:34.144Z,17.40
2018-08-18T23:28:02.500Z,20.33
2018-08-18T23:30:36.069Z,21.30
2018-08-18T23:33:06.712Z,23.80
2018-08-18T23:35:35.166Z,22.63
2018-08-18T23:38:03.821Z,22.97
2018-08-18T23:40:33.146Z,19.00
2018-08-18T23:43:01.449Z,21.07
2018-08-18T23:45:36.898Z,25.73
2018-08-18T23:48:07.914Z,21.20
2018-08-18T23:50:37.504Z,20.77
2018-08-18T23:53:10.306Z,19.93
2018-08-18T23:55:48.828Z,19.10
2018-08-18T23:58:17.537Z,19.20
